sensor_id;sensor_type;location;lat;lon;timestamp;pressure;altitude;pressure_sealevel;temperature;humidity
24486;BME280;13449;49.374;8.584;2023-02-12T00:00:51;102619.72;;;5.43;95.21
24486;BME280;13449;49.374;8.584;2023-02-12T00:03:17;102619.81;;;5.42;95.25
24486;BME280;13449;49.374;8.584;2023-02-12T00:05:44;102606.66;;;5.50;96.66
24486;BME280;13449;49.374;8.584;2023-02-12T00:08:13;102606.66;;;5.50;95.62
24486;BME280;13449;49.374;8.584;2023-02-12T00:10:42;102608.28;;;5.52;95.21
24486;BME280;13449;49.374;8.584;2023-02-12T00:13:11;102613.69;;;5.52;95.13
24486;BME280;13449;49.374;8.584;2023-02-12T00:15:39;102603.06;;;5.49;95.79
24486;BME280;13449;49.374;8.584;2023-02-12T00:18:05;102601.91;;;5.53;97.01
24486;BME280;13449;49.374;8.584;2023-02-12T00:20:33;102604.59;;;5.53;94.68
24486;BME280;13449;49.374;8.584;2023-02-12T00:23:01;102603.75;;;5.53;95.30
24486;BME280;13449;49.374;8.584;2023-02-12T00:25:28;102603.94;;;5.50;94.89
24486;BME280;13449;49.374;8.584;2023-02-12T00:27:55;102603.44;;;5.57;95.45
24486;BME280;13449;49.374;8.584;2023-02-12T00:30:21;102609.06;;;5.54;94.44
24486;BME280;13449;49.374;8.584;2023-02-12T00:32:47;102611.84;;;5.53;95.23
24486;BME280;13449;49.374;8.584;2023-02-12T00:35:14;102611.75;;;5.54;94.96
24486;BME280;13449;49.374;8.584;2023-02-12T00:37:41;102610.97;;;5.52;95.70
24486;BME280;13449;49.374;8.584;2023-02-12T00:40:08;102602.88;;;5.52;95.17
24486;BME280;13449;49.374;8.584;2023-02-12T00:42:34;102606.53;;;5.51;95.92
24486;BME280;13449;49.374;8.584;2023-02-12T00:45:01;102609.44;;;5.48;96.04
24486;BME280;13449;49.374;8.584;2023-02-12T00:47:29;102611.19;;;5.49;96.29
24486;BME280;13449;49.374;8.584;2023-02-12T00:49:56;102612.34;;;5.45;95.50
24486;BME280;13449;49.374;8.584;2023-02-12T00:52:22;102625.97;;;5.44;96.26
24486;BME280;13449;49.374;8.584;2023-02-12T00:54:49;102619.50;;;5.46;96.07
24486;BME280;13449;49.374;8.584;2023-02-12T00:57:15;102621.34;;;5.46;95.25
24486;BME280;13449;49.374;8.584;2023-02-12T00:59:41;102630.72;;;5.54;95.87
24486;BME280;13449;49.374;8.584;2023-02-12T01:02:08;102631.09;;;5.48;94.39
24486;BME280;13449;49.374;8.584;2023-02-12T01:04:34;102630.22;;;5.48;94.59
24486;BME280;13449;49.374;8.584;2023-02-12T01:07:01;102632.84;;;5.49;95.85
24486;BME280;13449;49.374;8.584;2023-02-12T01:09:27;102639.22;;;5.48;96.47
24486;BME280;13449;49.374;8.584;2023-02-12T01:11:54;102628.50;;;5.47;96.32
24486;BME280;13449;49.374;8.584;2023-02-12T01:14:20;102629.38;;;5.47;96.37
24486;BME280;13449;49.374;8.584;2023-02-12T01:16:47;102626.97;;;5.43;96.69
24486;BME280;13449;49.374;8.584;2023-02-12T01:19:13;102623.38;;;5.42;96.88
24486;BME280;13449;49.374;8.584;2023-02-12T01:21:40;102623.47;;;5.41;97.53
24486;BME280;13449;49.374;8.584;2023-02-12T01:24:11;102618.19;;;5.39;97.02
24486;BME280;13449;49.374;8.584;2023-02-12T01:26:40;102630.94;;;5.37;96.65
24486;BME280;13449;49.374;8.584;2023-02-12T01:29:10;102622.59;;;5.40;97.47
24486;BME280;13449;49.374;8.584;2023-02-12T01:31:38;102627.34;;;5.36;97.18
24486;BME280;13449;49.374;8.584;2023-02-12T01:34:06;102628.44;;;5.34;96.02
24486;BME280;13449;49.374;8.584;2023-02-12T01:36:33;102631.13;;;5.34;96.16
24486;BME280;13449;49.374;8.584;2023-02-12T01:39:03;102621.19;;;5.34;96.39
24486;BME280;13449;49.374;8.584;2023-02-12T01:41:38;102617.59;;;5.34;97.87
24486;BME280;13449;49.374;8.584;2023-02-12T01:44:09;102621.47;;;5.30;96.45
24486;BME280;13449;49.374;8.584;2023-02-12T01:46:38;102624.28;;;5.28;97.81
24486;BME280;13449;49.374;8.584;2023-02-12T01:49:09;102618.00;;;5.28;97.70
24486;BME280;13449;49.374;8.584;2023-02-12T01:51:38;102618.88;;;5.28;98.65
24486;BME280;13449;49.374;8.584;2023-02-12T01:54:07;102625.34;;;5.26;98.90
24486;BME280;13449;49.374;8.584;2023-02-12T01:56:35;102611.94;;;5.24;97.46
24486;BME280;13449;49.374;8.584;2023-02-12T01:59:01;102608.91;;;5.29;97.92
24486;BME280;13449;49.374;8.584;2023-02-12T02:01:29;102602.25;;;5.34;98.30
24486;BME280;13449;49.374;8.584;2023-02-12T02:04:01;102608.53;;;5.35;99.11
24486;BME280;13449;49.374;8.584;2023-02-12T02:06:34;102611.53;;;5.30;97.15
24486;BME280;13449;49.374;8.584;2023-02-12T02:09:05;102611.63;;;5.29;97.95
24486;BME280;13449;49.374;8.584;2023-02-12T02:11:31;102608.91;;;5.29;98.09
24486;BME280;13449;49.374;8.584;2023-02-12T02:14:16;102612.78;;;5.25;96.90
24486;BME280;13449;49.374;8.584;2023-02-12T02:23:08;102612.03;;;5.23;98.50
24486;BME280;13449;49.374;8.584;2023-02-12T02:31:36;102619.56;;;5.18;98.04
24486;BME280;13449;49.374;8.584;2023-02-12T02:36:49;102614.72;;;5.23;99.45
24486;BME280;13449;49.374;8.584;2023-02-12T02:45:15;102612.44;;;5.17;98.53
24486;BME280;13449;49.374;8.584;2023-02-12T02:47:54;102603.66;;;5.13;98.67
24486;BME280;13449;49.374;8.584;2023-02-12T02:50:23;102607.41;;;5.11;98.35
24486;BME280;13449;49.374;8.584;2023-02-12T02:52:55;102612.72;;;5.12;98.74
24486;BME280;13449;49.374;8.584;2023-02-12T02:55:24;102608.28;;;5.11;98.22
24486;BME280;13449;49.374;8.584;2023-02-12T02:58:03;102604.69;;;5.11;98.73
24486;BME280;13449;49.374;8.584;2023-02-12T03:00:36;102611.19;;;5.08;98.17
24486;BME280;13449;49.374;8.584;2023-02-12T03:03:11;102605.69;;;5.10;97.42
24486;BME280;13449;49.374;8.584;2023-02-12T03:05:46;102602.78;;;5.13;98.68
24486;BME280;13449;49.374;8.584;2023-02-12T03:08:20;102595.53;;;5.13;99.32
24486;BME280;13449;49.374;8.584;2023-02-12T03:10:54;102597.38;;;5.13;100.00
24486;BME280;13449;49.374;8.584;2023-02-12T03:13:31;102600.16;;;5.11;99.83
24486;BME280;13449;49.374;8.584;2023-02-12T03:16:03;102607.53;;;5.09;99.74
24486;BME280;13449;49.374;8.584;2023-02-12T03:18:37;102601.25;;;5.09;99.45
24486;BME280;13449;49.374;8.584;2023-02-12T03:21:12;102604.69;;;5.11;100.00
24486;BME280;13449;49.374;8.584;2023-02-12T03:23:49;102604.59;;;5.12;100.00
24486;BME280;13449;49.374;8.584;2023-02-12T03:26:26;102605.69;;;5.10;100.00
24486;BME280;13449;49.374;8.584;2023-02-12T03:28:56;102604.91;;;5.08;100.00
24486;BME280;13449;49.374;8.584;2023-02-12T03:37:13;102608.75;;;5.18;100.00
24486;BME280;13449;49.374;8.584;2023-02-12T03:39:56;102614.34;;;5.15;100.00
24486;BME280;13449;49.374;8.584;2023-02-12T03:48:26;102614.47;;;5.13;100.00
24486;BME280;13449;49.374;8.584;2023-02-12T03:51:04;102609.91;;;5.14;99.98
24486;BME280;13449;49.374;8.584;2023-02-12T03:53:38;102609.53;;;5.20;100.00
24486;BME280;13449;49.374;8.584;2023-02-12T03:56:11;102609.91;;;5.14;99.55
24486;BME280;13449;49.374;8.584;2023-02-12T03:58:40;102613.19;;;5.19;99.86
24486;BME280;13449;49.374;8.584;2023-02-12T04:01:08;102620.13;;;5.23;100.00
24486;BME280;13449;49.374;8.584;2023-02-12T04:03:35;102615.19;;;5.29;100.00
24486;BME280;13449;49.374;8.584;2023-02-12T04:06:02;102618.38;;;5.22;98.69
24486;BME280;13449;49.374;8.584;2023-02-12T04:08:30;102617.34;;;5.24;99.55
24486;BME280;13449;49.374;8.584;2023-02-12T04:11:10;102619.38;;;5.21;99.36
24486;BME280;13449;49.374;8.584;2023-02-12T04:13:49;102620.22;;;5.21;99.20
24486;BME280;13449;49.374;8.584;2023-02-12T04:16:32;102617.34;;;5.24;99.53
24486;BME280;13449;49.374;8.584;2023-02-12T04:19:03;102616.66;;;5.35;100.00
24486;BME280;13449;49.374;8.584;2023-02-12T04:24:37;102629.72;;;5.28;99.38
24486;BME280;13449;49.374;8.584;2023-02-12T04:30:02;102627.28;;;5.24;100.00
24486;BME280;13449;49.374;8.584;2023-02-12T04:32:50;102624.69;;;5.22;100.00
24486;BME280;13449;49.374;8.584;2023-02-12T04:35:19;102632.03;;;5.20;100.00
24486;BME280;13449;49.374;8.584;2023-02-12T04:37:52;102633.28;;;5.15;100.00
24486;BME280;13449;49.374;8.584;2023-02-12T04:40:21;102632.91;;;5.21;100.00
24486;BME280;13449;49.374;8.584;2023-02-12T04:42:50;102630.69;;;5.13;100.00
24486;BME280;13449;49.374;8.584;2023-02-12T04:45:26;102631.94;;;5.08;100.00
24486;BME280;13449;49.374;8.584;2023-02-12T04:47:56;102628.56;;;5.04;100.00
24486;BME280;13449;49.374;8.584;2023-02-12T04:50:23;102634.16;;;5.01;99.63
24486;BME280;13449;49.374;8.584;2023-02-12T04:52:51;102637.84;;;5.00;100.00
24486;BME280;13449;49.374;8.584;2023-02-12T04:55:18;102634.25;;;5.00;100.00
24486;BME280;13449;49.374;8.584;2023-02-12T04:57:44;102636.97;;;5.00;100.00
24486;BME280;13449;49.374;8.584;2023-02-12T05:00:12;102628.66;;;5.03;100.00
24486;BME280;13449;49.374;8.584;2023-02-12T05:02:42;102627.81;;;5.02;100.00
24486;BME280;13449;49.374;8.584;2023-02-12T05:05:09;102626.94;;;5.02;100.00
24486;BME280;13449;49.374;8.584;2023-02-12T05:07:36;102624.53;;;4.97;100.00
24486;BME280;13449;49.374;8.584;2023-02-12T05:10:02;102618.03;;;5.00;100.00
24486;BME280;13449;49.374;8.584;2023-02-12T05:12:29;102628.84;;;5.00;100.00
24486;BME280;13449;49.374;8.584;2023-02-12T05:14:56;102620.19;;;4.95;99.87
24486;BME280;13449;49.374;8.584;2023-02-12T05:17:23;102615.81;;;4.92;100.00
24486;BME280;13449;49.374;8.584;2023-02-12T05:19:50;102618.72;;;4.89;100.00
24486;BME280;13449;49.374;8.584;2023-02-12T05:22:17;102617.56;;;4.93;100.00
24486;BME280;13449;49.374;8.584;2023-02-12T05:24:43;102622.38;;;4.88;100.00
24486;BME280;13449;49.374;8.584;2023-02-12T05:27:10;102626.06;;;4.87;100.00
24486;BME280;13449;49.374;8.584;2023-02-12T05:29:37;102621.72;;;4.84;100.00
24486;BME280;13449;49.374;8.584;2023-02-12T05:32:04;102620.84;;;4.84;100.00
24486;BME280;13449;49.374;8.584;2023-02-12T05:34:35;102617.66;;;4.92;100.00
24486;BME280;13449;49.374;8.584;2023-02-12T05:37:02;102619.50;;;4.91;100.00
24486;BME280;13449;49.374;8.584;2023-02-12T05:39:38;102620.56;;;4.88;100.00
24486;BME280;13449;49.374;8.584;2023-02-12T05:42:04;102618.63;;;4.91;100.00
24486;BME280;13449;49.374;8.584;2023-02-12T05:44:31;102626.75;;;4.91;100.00
24486;BME280;13449;49.374;8.584;2023-02-12T05:46:57;102623.16;;;4.90;100.00
24486;BME280;13449;49.374;8.584;2023-02-12T05:49:35;102624.22;;;4.87;100.00
24486;BME280;13449;49.374;8.584;2023-02-12T05:52:01;102629.63;;;4.87;100.00
24486;BME280;13449;49.374;8.584;2023-02-12T05:54:28;102623.44;;;4.85;100.00
24486;BME280;13449;49.374;8.584;2023-02-12T05:56:55;102630.81;;;4.83;100.00
24486;BME280;13449;49.374;8.584;2023-02-12T05:59:22;102631.56;;;4.85;100.00
24486;BME280;13449;49.374;8.584;2023-02-12T06:01:50;102631.56;;;4.85;100.00
24486;BME280;13449;49.374;8.584;2023-02-12T06:04:24;102643.25;;;4.86;100.00
24486;BME280;13449;49.374;8.584;2023-02-12T06:06:55;102635.13;;;4.86;100.00
24486;BME280;13449;49.374;8.584;2023-02-12T06:09:22;102643.91;;;4.90;100.00
24486;BME280;13449;49.374;8.584;2023-02-12T06:11:49;102642.09;;;4.90;100.00
24486;BME280;13449;49.374;8.584;2023-02-12T06:14:19;102639.38;;;4.90;100.00
24486;BME280;13449;49.374;8.584;2023-02-12T06:16:48;102643.84;;;4.91;100.00
24486;BME280;13449;49.374;8.584;2023-02-12T06:19:15;102643.63;;;4.94;100.00
24486;BME280;13449;49.374;8.584;2023-02-12T06:22:02;102656.84;;;4.99;100.00
24486;BME280;13449;49.374;8.584;2023-02-12T06:24:28;102642.66;;;4.95;100.00
24486;BME280;13449;49.374;8.584;2023-02-12T06:26:57;102647.09;;;4.96;100.00
24486;BME280;13449;49.374;8.584;2023-02-12T06:29:24;102647.97;;;4.97;100.00
24486;BME280;13449;49.374;8.584;2023-02-12T06:31:52;102654.34;;;4.96;100.00
24486;BME280;13449;49.374;8.584;2023-02-12T06:34:23;102651.75;;;4.94;100.00
24486;BME280;13449;49.374;8.584;2023-02-12T06:36:51;102656.16;;;4.95;100.00
24486;BME280;13449;49.374;8.584;2023-02-12T06:39:18;102659.53;;;4.99;100.00
24486;BME280;13449;49.374;8.584;2023-02-12T06:41:45;102649.03;;;5.08;100.00
24486;BME280;13449;49.374;8.584;2023-02-12T06:44:12;102650.28;;;5.03;100.00
24486;BME280;13449;49.374;8.584;2023-02-12T06:46:40;102658.03;;;5.09;100.00
24486;BME280;13449;49.374;8.584;2023-02-12T06:49:07;102663.63;;;5.06;100.00
24486;BME280;13449;49.374;8.584;2023-02-12T06:51:36;102655.31;;;5.09;100.00
24486;BME280;13449;49.374;8.584;2023-02-12T06:54:15;102664.59;;;5.05;100.00
24486;BME280;13449;49.374;8.584;2023-02-12T06:56:45;102660.94;;;5.06;100.00
24486;BME280;13449;49.374;8.584;2023-02-12T06:59:13;102667.97;;;5.08;100.00
24486;BME280;13449;49.374;8.584;2023-02-12T07:01:41;102667.69;;;5.13;100.00
24486;BME280;13449;49.374;8.584;2023-02-12T07:04:08;102670.25;;;5.14;100.00
24486;BME280;13449;49.374;8.584;2023-02-12T07:06:46;102670.09;;;5.17;100.00
24486;BME280;13449;49.374;8.584;2023-02-12T07:09:13;102667.47;;;5.16;100.00
24486;BME280;13449;49.374;8.584;2023-02-12T07:11:40;102671.81;;;5.18;100.00
24486;BME280;13449;49.374;8.584;2023-02-12T07:14:11;102665.34;;;5.21;100.00
24486;BME280;13449;49.374;8.584;2023-02-12T07:16:39;102669.91;;;5.20;100.00
24486;BME280;13449;49.374;8.584;2023-02-12T07:19:05;102674.22;;;5.23;100.00
24486;BME280;13449;49.374;8.584;2023-02-12T07:21:41;102675.78;;;5.27;100.00
24486;BME280;13449;49.374;8.584;2023-02-12T07:24:14;102674.69;;;5.29;100.00
24486;BME280;13449;49.374;8.584;2023-02-12T07:26:43;102675.19;;;5.36;100.00
24486;BME280;13449;49.374;8.584;2023-02-12T07:29:09;102679.41;;;5.40;100.00
24486;BME280;13449;49.374;8.584;2023-02-12T07:31:40;102673.84;;;5.43;100.00
24486;BME280;13449;49.374;8.584;2023-02-12T07:34:08;102669.09;;;5.47;100.00
24486;BME280;13449;49.374;8.584;2023-02-12T07:36:36;102675.06;;;5.52;100.00
24486;BME280;13449;49.374;8.584;2023-02-12T07:39:03;102678.25;;;5.58;100.00
24486;BME280;13449;49.374;8.584;2023-02-12T07:41:32;102680.63;;;5.63;100.00
24486;BME280;13449;49.374;8.584;2023-02-12T07:44:05;102670.19;;;5.71;100.00
24486;BME280;13449;49.374;8.584;2023-02-12T07:46:37;102676.38;;;5.73;100.00
24486;BME280;13449;49.374;8.584;2023-02-12T07:49:06;102685.91;;;5.78;99.95
24486;BME280;13449;49.374;8.584;2023-02-12T07:51:34;102686.69;;;5.80;99.24
24486;BME280;13449;49.374;8.584;2023-02-12T07:54:01;102687.25;;;5.85;99.27
24486;BME280;13449;49.374;8.584;2023-02-12T07:56:36;102684.34;;;5.89;99.53
24486;BME280;13449;49.374;8.584;2023-02-12T07:59:09;102689.78;;;5.89;98.83
24486;BME280;13449;49.374;8.584;2023-02-12T08:01:41;102693.25;;;5.91;98.61
24486;BME280;13449;49.374;8.584;2023-02-12T08:04:13;102693.06;;;5.94;98.38
24486;BME280;13449;49.374;8.584;2023-02-12T08:06:43;102684.84;;;5.95;98.64
24486;BME280;13449;49.374;8.584;2023-02-12T08:09:13;102693.84;;;5.96;97.28
24486;BME280;13449;49.374;8.584;2023-02-12T08:11:41;102688.75;;;6.04;97.45
24486;BME280;13449;49.374;8.584;2023-02-12T08:14:10;102689.31;;;6.09;98.04
24486;BME280;13449;49.374;8.584;2023-02-12T08:16:39;102692.59;;;6.14;98.27
24486;BME280;13449;49.374;8.584;2023-02-12T08:19:09;102699.66;;;6.16;97.87
24486;BME280;13449;49.374;8.584;2023-02-12T08:21:55;102696.06;;;6.16;96.69
24486;BME280;13449;49.374;8.584;2023-02-12T08:24:23;102703.78;;;6.22;97.38
24486;BME280;13449;49.374;8.584;2023-02-12T08:26:54;102689.91;;;6.26;97.42
24486;BME280;13449;49.374;8.584;2023-02-12T08:29:26;102704.03;;;6.31;97.89
24486;BME280;13449;49.374;8.584;2023-02-12T08:32:01;102701.97;;;6.35;98.11
24486;BME280;13449;49.374;8.584;2023-02-12T08:34:41;102704.25;;;6.41;98.16
24486;BME280;13449;49.374;8.584;2023-02-12T08:37:10;102702.97;;;6.47;97.25
24486;BME280;13449;49.374;8.584;2023-02-12T08:39:40;102706.13;;;6.53;97.62
24486;BME280;13449;49.374;8.584;2023-02-12T08:42:11;102702.38;;;6.56;96.74
24486;BME280;13449;49.374;8.584;2023-02-12T08:44:41;102707.03;;;6.66;96.86
24486;BME280;13449;49.374;8.584;2023-02-12T08:47:07;102700.53;;;6.69;95.48
24486;BME280;13449;49.374;8.584;2023-02-12T08:49:35;102700.88;;;6.77;94.62
24486;BME280;13449;49.374;8.584;2023-02-12T08:52:01;102700.34;;;6.85;94.33
24486;BME280;13449;49.374;8.584;2023-02-12T08:54:32;102696.31;;;6.90;94.50
24486;BME280;13449;49.374;8.584;2023-02-12T08:57:00;102711.38;;;6.94;93.50
24486;BME280;13449;49.374;8.584;2023-02-12T08:59:28;102701.53;;;6.93;93.13
24486;BME280;13449;49.374;8.584;2023-02-12T09:01:55;102711.84;;;7.01;93.11
24486;BME280;13449;49.374;8.584;2023-02-12T09:04:26;102707.16;;;7.03;93.15
24486;BME280;13449;49.374;8.584;2023-02-12T09:06:55;102709.78;;;7.04;93.59
24486;BME280;13449;49.374;8.584;2023-02-12T09:09:24;102719.53;;;7.07;93.10
24486;BME280;13449;49.374;8.584;2023-02-12T09:11:53;102709.22;;;6.99;92.77
24486;BME280;13449;49.374;8.584;2023-02-12T09:14:22;102714.84;;;7.09;93.50
24486;BME280;13449;49.374;8.584;2023-02-12T09:17:01;102715.72;;;7.09;92.68
24486;BME280;13449;49.374;8.584;2023-02-12T09:19:28;102719.66;;;7.18;93.59
24486;BME280;13449;49.374;8.584;2023-02-12T09:21:57;102725.50;;;7.24;92.68
24486;BME280;13449;49.374;8.584;2023-02-12T09:24:26;102723.09;;;7.20;92.93
24486;BME280;13449;49.374;8.584;2023-02-12T09:26:55;102725.63;;;7.23;92.95
24486;BME280;13449;49.374;8.584;2023-02-12T09:29:22;102727.66;;;7.32;92.65
24486;BME280;13449;49.374;8.584;2023-02-12T09:31:50;102728.22;;;7.37;92.16
24486;BME280;13449;49.374;8.584;2023-02-12T09:34:17;102734.28;;;7.41;91.38
24486;BME280;13449;49.374;8.584;2023-02-12T09:36:44;102727.97;;;7.40;91.61
24486;BME280;13449;49.374;8.584;2023-02-12T09:39:15;102723.97;;;7.46;91.99
24486;BME280;13449;49.374;8.584;2023-02-12T09:47:25;102726.47;;;7.49;90.90
24486;BME280;13449;49.374;8.584;2023-02-12T09:50:04;102732.75;;;7.49;90.82
24486;BME280;13449;49.374;8.584;2023-02-12T09:52:36;102732.75;;;7.49;90.34
24486;BME280;13449;49.374;8.584;2023-02-12T09:55:03;102739.16;;;7.48;90.39
24486;BME280;13449;49.374;8.584;2023-02-12T09:57:35;102735.56;;;7.60;90.03
24486;BME280;13449;49.374;8.584;2023-02-12T10:00:14;102732.06;;;7.58;89.99
24486;BME280;13449;49.374;8.584;2023-02-12T10:02:41;102735.09;;;7.66;89.76
24486;BME280;13449;49.374;8.584;2023-02-12T10:05:31;102731.41;;;7.67;89.03
24486;BME280;13449;49.374;8.584;2023-02-12T10:11:15;102733.69;;;7.73;89.04
24486;BME280;13449;49.374;8.584;2023-02-12T10:16:58;102727.56;;;7.83;89.19
24486;BME280;13449;49.374;8.584;2023-02-12T10:27:44;102724.81;;;7.95;87.79
24486;BME280;13449;49.374;8.584;2023-02-12T10:30:21;102725.44;;;7.99;87.81
24486;BME280;13449;49.374;8.584;2023-02-12T10:32:52;102723.34;;;8.02;87.35
24486;BME280;13449;49.374;8.584;2023-02-12T10:35:22;102713.94;;;8.19;87.56
24486;BME280;13449;49.374;8.584;2023-02-12T10:38:00;102709.28;;;8.21;86.25
24486;BME280;13449;49.374;8.584;2023-02-12T10:40:33;102715.47;;;8.47;87.64
24486;BME280;13449;49.374;8.584;2023-02-12T10:43:03;102711.03;;;8.46;86.60
24486;BME280;13449;49.374;8.584;2023-02-12T10:45:32;102712.34;;;8.40;86.39
24486;BME280;13449;49.374;8.584;2023-02-12T10:48:14;102704.84;;;8.55;86.46
24486;BME280;13449;49.374;8.584;2023-02-12T10:53:42;102708.72;;;8.63;84.80
24486;BME280;13449;49.374;8.584;2023-02-12T10:58:40;102700.75;;;8.73;83.95
24486;BME280;13449;49.374;8.584;2023-02-12T11:01:16;102700.25;;;8.79;84.26
24486;BME280;13449;49.374;8.584;2023-02-12T11:03:45;102697.28;;;8.82;83.22
24486;BME280;13449;49.374;8.584;2023-02-12T11:06:21;102695.81;;;9.00;84.07
24486;BME280;13449;49.374;8.584;2023-02-12T11:08:50;102698.06;;;9.06;82.77
24486;BME280;13449;49.374;8.584;2023-02-12T11:11:21;102705.00;;;9.10;82.21
24486;BME280;13449;49.374;8.584;2023-02-12T11:14:02;102694.22;;;9.09;82.00
24486;BME280;13449;49.374;8.584;2023-02-12T11:18:59;102685.59;;;9.37;81.78
24486;BME280;13449;49.374;8.584;2023-02-12T11:21:26;102683.00;;;9.36;81.54
24486;BME280;13449;49.374;8.584;2023-02-12T11:23:55;102678.53;;;9.46;81.35
24486;BME280;13449;49.374;8.584;2023-02-12T11:26:28;102680.16;;;9.48;81.08
24486;BME280;13449;49.374;8.584;2023-02-12T11:29:02;102674.56;;;9.39;80.15
24486;BME280;13449;49.374;8.584;2023-02-12T11:31:31;102677.00;;;9.64;80.39
24486;BME280;13449;49.374;8.584;2023-02-12T11:36:33;102667.75;;;9.55;80.36
24486;BME280;13449;49.374;8.584;2023-02-12T11:39:01;102670.22;;;9.69;79.47
24486;BME280;13449;49.374;8.584;2023-02-12T11:41:38;102658.66;;;9.77;80.09
24486;BME280;13449;49.374;8.584;2023-02-12T11:44:11;102663.13;;;9.78;79.77
24486;BME280;13449;49.374;8.584;2023-02-12T11:46:38;102661.13;;;9.80;80.17
24486;BME280;13449;49.374;8.584;2023-02-12T11:49:05;102652.09;;;9.80;79.73
24486;BME280;13449;49.374;8.584;2023-02-12T11:51:35;102659.50;;;9.89;79.38
24486;BME280;13449;49.374;8.584;2023-02-12T11:54:03;102651.34;;;9.89;79.29
24486;BME280;13449;49.374;8.584;2023-02-12T11:56:43;102668.19;;;9.83;77.88
24486;BME280;13449;49.374;8.584;2023-02-12T11:59:39;102658.53;;;9.79;78.20
24486;BME280;13449;49.374;8.584;2023-02-12T12:02:20;102659.84;;;9.95;78.13
24486;BME280;13449;49.374;8.584;2023-02-12T12:04:51;102644.66;;;9.82;78.83
24486;BME280;13449;49.374;8.584;2023-02-12T12:07:29;102656.16;;;9.96;78.05
24486;BME280;13449;49.374;8.584;2023-02-12T12:10:00;102647.25;;;9.83;78.11
24486;BME280;13449;49.374;8.584;2023-02-12T12:12:39;102649.38;;;9.80;77.95
24486;BME280;13449;49.374;8.584;2023-02-12T12:15:29;102645.75;;;9.90;77.99
24486;BME280;13449;49.374;8.584;2023-02-12T12:18:30;102634.72;;;9.92;77.91
24486;BME280;13449;49.374;8.584;2023-02-12T12:21:27;102636.88;;;10.09;77.65
24486;BME280;13449;49.374;8.584;2023-02-12T12:23:59;102632.97;;;9.91;77.93
24486;BME280;13449;49.374;8.584;2023-02-12T12:26:29;102632.66;;;10.16;77.80
24486;BME280;13449;49.374;8.584;2023-02-12T12:29:10;102625.97;;;10.09;77.64
24486;BME280;13449;49.374;8.584;2023-02-12T12:31:40;102633.47;;;10.28;76.31
24486;BME280;13449;49.374;8.584;2023-02-12T12:34:11;102634.34;;;10.28;75.33
24486;BME280;13449;49.374;8.584;2023-02-12T12:42:30;102624.13;;;10.41;74.69
24486;BME280;13449;49.374;8.584;2023-02-12T12:50:42;102619.88;;;10.48;73.76
24486;BME280;13449;49.374;8.584;2023-02-12T12:55:53;102604.38;;;10.49;74.10
24486;BME280;13449;49.374;8.584;2023-02-12T12:58:46;102600.22;;;10.54;73.55
24486;BME280;13449;49.374;8.584;2023-02-12T13:14:43;102583.81;;;10.13;74.58
24486;BME280;13449;49.374;8.584;2023-02-12T13:17:35;102576.03;;;10.20;74.78
24486;BME280;13449;49.374;8.584;2023-02-12T13:20:26;102570.84;;;10.05;74.89
24486;BME280;13449;49.374;8.584;2023-02-12T13:23:04;102573.72;;;10.04;75.16
24486;BME280;13449;49.374;8.584;2023-02-12T13:25:41;102569.03;;;9.95;75.63
24486;BME280;13449;49.374;8.584;2023-02-12T13:28:14;102566.47;;;9.93;75.71
24486;BME280;13449;49.374;8.584;2023-02-12T13:30:48;102560.19;;;9.82;76.23
24486;BME280;13449;49.374;8.584;2023-02-12T13:33:24;102560.06;;;9.83;76.14
24486;BME280;13449;49.374;8.584;2023-02-12T13:35:56;102559.41;;;9.91;76.08
24486;BME280;13449;49.374;8.584;2023-02-12T13:38:27;102552.75;;;9.84;76.61
24486;BME280;13449;49.374;8.584;2023-02-12T13:41:02;102547.56;;;9.81;76.50
24486;BME280;13449;49.374;8.584;2023-02-12T13:46:27;102551.81;;;9.74;76.47
24486;BME280;13449;49.374;8.584;2023-02-12T13:49:07;102561.22;;;9.69;75.89
24486;BME280;13449;49.374;8.584;2023-02-12T13:51:45;102551.84;;;9.62;76.72
24486;BME280;13449;49.374;8.584;2023-02-12T13:54:21;102551.81;;;9.74;76.05
24486;BME280;13449;49.374;8.584;2023-02-12T13:56:55;102551.50;;;9.88;75.67
24486;BME280;13449;49.374;8.584;2023-02-12T14:02:17;102537.47;;;9.60;77.54
24486;BME280;13449;49.374;8.584;2023-02-12T14:07:21;102536.13;;;9.66;76.92
24486;BME280;13449;49.374;8.584;2023-02-12T14:12:30;102534.03;;;9.58;77.44
24486;BME280;13449;49.374;8.584;2023-02-12T14:15:09;102525.88;;;9.58;77.20
24486;BME280;13449;49.374;8.584;2023-02-12T14:18:04;102523.53;;;9.54;77.55
24486;BME280;13449;49.374;8.584;2023-02-12T14:20:35;102524.66;;;9.51;78.06
24486;BME280;13449;49.374;8.584;2023-02-12T14:23:26;102517.47;;;9.50;78.53
24486;BME280;13449;49.374;8.584;2023-02-12T14:26:11;102524.50;;;9.53;78.02
24486;BME280;13449;49.374;8.584;2023-02-12T14:28:48;102518.94;;;9.54;77.03
24486;BME280;13449;49.374;8.584;2023-02-12T14:39:34;102520.56;;;9.46;78.25
24486;BME280;13449;49.374;8.584;2023-02-12T14:44:58;102516.38;;;9.42;78.98
24486;BME280;13449;49.374;8.584;2023-02-12T14:49:56;102506.63;;;9.39;79.46
24486;BME280;13449;49.374;8.584;2023-02-12T14:52:30;102509.94;;;9.43;79.46
24486;BME280;13449;49.374;8.584;2023-02-12T14:55:18;102501.78;;;9.43;79.00
24486;BME280;13449;49.374;8.584;2023-02-12T14:57:48;102492.50;;;9.34;80.06
24486;BME280;13449;49.374;8.584;2023-02-12T15:00:30;102496.28;;;9.22;80.15
24486;BME280;13449;49.374;8.584;2023-02-12T15:03:24;102488.84;;;9.24;80.85
24486;BME280;13449;49.374;8.584;2023-02-12T15:06:00;102492.94;;;9.30;80.27
24486;BME280;13449;49.374;8.584;2023-02-12T15:08:42;102488.19;;;9.32;79.98
24486;BME280;13449;49.374;8.584;2023-02-12T15:14:22;102492.81;;;9.20;81.16
24486;BME280;13449;49.374;8.584;2023-02-12T15:19:40;102484.75;;;9.18;80.75
24486;BME280;13449;49.374;8.584;2023-02-12T15:22:35;102486.16;;;9.13;80.75
24486;BME280;13449;49.374;8.584;2023-02-12T15:25:23;102490.63;;;9.03;81.49
24486;BME280;13449;49.374;8.584;2023-02-12T15:28:13;102489.28;;;8.97;81.68